Time;durP1;ratioP1;P1;durP2;ratioP2;P2;SDS_P1;SDS_P2;PMS_P1;PMS_P2;Temp;Humidity;BMP_temperature;BMP_pressure;BME280_temperature;BME280_humidity;BME280_pressure;Samples;Min_cycle;Max_cycle;Signal;HPM_P1;HPM_P2
2022/07/11 00:01:05;;;;;;;9.05;7.12;;;;;;;13.40;100.00;98648.05;1788758;80;21414;-71
2022/07/11 00:03:34;;;;;;;;;;;;;;;13.37;100.00;98652.66;1764858;80;20905;-70
2022/07/11 00:06:01;;;;;;;8.50;5.58;;;;;;;13.39;100.00;98657.20;1788730;80;20135;-70
2022/07/11 00:08:29;;;;;;;14.87;11.25;;;;;;;13.38;100.00;98658.87;1788817;80;22179;-70
2022/07/11 00:10:55;;;;;;;13.18;8.63;;;;;;;13.36;100.00;98655.11;1788482;80;20857;-70
2022/07/11 00:13:22;;;;;;;8.25;5.37;;;;;;;13.37;100.00;98655.91;1788607;80;20913;-70
2022/07/11 00:15:49;;;;;;;15.40;11.65;;;;;;;13.39;100.00;98655.06;1788564;80;20877;-70
2022/07/11 00:18:16;;;;;;;12.05;10.82;;;;;;;13.35;100.00;98661.61;1788591;80;20881;-70
2022/07/11 00:20:42;;;;;;;18.23;14.03;;;;;;;13.32;100.00;98662.17;1788886;80;21419;-70
2022/07/11 00:23:09;;;;;;;10.45;8.58;;;;;;;13.32;100.00;98660.03;1790190;80;21440;-69
2022/07/11 00:25:37;;;;;;;5.87;5.22;;;;;;;13.31;100.00;98660.58;1788564;80;20929;-70
2022/07/11 00:28:04;;;;;;;7.17;5.75;;;;;;;13.29;100.00;98662.77;1788778;80;21517;-70
2022/07/11 00:30:31;;;;;;;5.05;4.55;;;;;;;13.27;100.00;98659.55;1788992;80;21501;-70
2022/07/11 00:32:58;;;;;;;9.15;4.92;;;;;;;13.26;100.00;98657.94;1788752;80;22076;-70
2022/07/11 00:35:25;;;;;;;12.13;9.30;;;;;;;13.24;100.00;98654.73;1788335;80;20877;-69
2022/07/11 00:37:51;;;;;;;11.08;8.43;;;;;;;13.23;100.00;98663.92;1788462;80;20984;-69
2022/07/11 00:40:19;;;;;;;21.75;15.50;;;;;;;13.26;100.00;98667.37;1788675;80;20932;-70
2022/07/11 00:42:46;;;;;;;22.65;16.02;;;;;;;13.31;100.00;98670.02;1788616;80;20980;-70
2022/07/11 00:45:13;;;;;;;16.73;10.98;;;;;;;13.39;100.00;98669.89;1764306;80;21263;-70
2022/07/11 00:47:40;;;;;;;17.00;14.28;;;;;;;13.40;100.00;98662.88;1786374;79;21349;-70
2022/07/11 00:50:09;;;;;;;21.05;15.72;;;;;;;13.42;100.00;98668.74;1785021;80;21427;-69
2022/07/11 00:52:36;;;;;;;46.63;27.62;;;;;;;13.47;100.00;98664.64;1785057;80;20893;-70
2022/07/11 00:55:06;;;;;;;8.00;5.58;;;;;;;13.51;100.00;98663.50;1785264;80;21545;-70
2022/07/11 00:57:32;;;;;;;8.30;4.53;;;;;;;13.55;100.00;98665.87;1784932;80;21257;-68
2022/07/11 00:59:59;;;;;;;6.78;4.12;;;;;;;13.60;100.00;98659.03;1782104;80;21423;-69
2022/07/11 01:02:26;;;;;;;5.12;3.50;;;;;;;13.65;100.00;98662.20;1784950;80;20834;-69
2022/07/11 01:04:53;;;;;;;4.85;4.30;;;;;;;13.67;100.00;98666.20;1784919;80;20924;-67
2022/07/11 01:07:20;;;;;;;7.00;4.42;;;;;;;13.68;100.00;98669.69;1785081;80;20917;-69
2022/07/11 01:09:50;;;;;;;5.50;4.17;;;;;;;13.69;100.00;98661.31;1753863;80;21206;-69
2022/07/11 01:12:17;;;;;;;9.95;4.33;;;;;;;13.70;100.00;98662.11;1756701;80;20846;-70
2022/07/11 01:14:56;;;;;;;6.47;3.92;;;;;;;13.71;100.00;98658.31;1785164;80;20977;-70
2022/07/11 01:17:22;;;;;;;5.47;3.37;;;;;;;13.73;100.00;98652.87;1784784;80;20881;-70
2022/07/11 01:19:49;;;;;;;5.78;3.80;;;;;;;13.75;100.00;98649.89;1784970;80;20869;-70
2022/07/11 01:22:17;;;;;;;5.45;4.15;;;;;;;13.76;100.00;98652.03;1784821;80;21151;-69
2022/07/11 01:24:44;;;;;;;4.35;3.90;;;;;;;13.72;100.00;98650.48;1785023;80;20924;-69
2022/07/11 01:27:12;;;;;;;8.40;4.00;;;;;;;13.72;100.00;98652.63;1785164;80;20987;-71
2022/07/11 01:29:39;;;;;;;8.80;3.95;;;;;;;13.76;100.00;98649.33;1784993;80;20893;-70
2022/07/11 01:32:07;;;;;;;9.05;4.08;;;;;;;13.83;100.00;98652.45;1785063;80;21494;-70
2022/07/11 01:34:34;;;;;;;7.60;4.00;;;;;;;13.85;100.00;98649.70;1785082;80;21251;-70
2022/07/11 01:37:02;;;;;;;10.38;4.60;;;;;;;13.88;100.00;98649.66;1785089;80;20972;-69
2022/07/11 01:39:30;;;;;;;7.12;5.47;;;;;;;13.88;100.00;98646.95;1785073;80;20975;-69
2022/07/11 01:41:58;;;;;;;7.75;5.45;;;;;;;13.90;100.00;98652.30;1785102;80;20921;-71
2022/07/11 01:44:25;;;;;;;17.37;11.55;;;;;;;13.94;100.00;98645.78;1785039;80;21510;-69
2022/07/11 01:46:52;;;;;;;36.48;23.15;;;;;;;13.98;100.00;98649.46;1785173;80;21464;-70
2022/07/11 01:49:19;;;;;;;9.70;7.50;;;;;;;14.04;100.00;98651.54;1784942;80;20908;-70
2022/07/11 01:51:46;;;;;;;16.87;15.13;;;;;;;14.11;100.00;98655.97;1785015;80;20889;-71
2022/07/11 01:54:13;;;;;;;29.60;25.52;;;;;;;14.14;100.00;98657.53;1782174;80;20980;-71
2022/07/11 01:56:40;;;;;;;14.28;12.88;;;;;;;14.14;100.00;98660.23;1785227;80;20909;-71
2022/07/11 01:59:08;;;;;;;6.83;4.97;;;;;;;14.17;100.00;98655.34;1785175;80;21335;-69
2022/07/11 02:01:35;;;;;;;10.10;4.70;;;;;;;14.17;100.00;98653.98;1785299;80;20942;-69
2022/07/11 02:04:02;;;;;;;7.58;5.67;;;;;;;14.15;100.00;98658.33;1785163;80;20968;-70
2022/07/11 02:06:30;;;;;;;7.85;6.22;;;;;;;14.14;100.00;98658.09;1784932;80;21445;-68
2022/07/11 02:08:57;;;;;;;9.18;5.30;;;;;;;14.10;100.00;98658.42;1785482;80;20921;-69
2022/07/11 02:11:23;;;;;;;6.78;4.17;;;;;;;14.10;100.00;98651.13;1784959;80;21158;-69
2022/07/11 02:13:50;;;;;;;7.12;5.62;;;;;;;14.13;100.00;98651.08;1785001;80;21007;-69
2022/07/11 02:16:18;;;;;;;7.53;4.55;;;;;;;14.11;100.00;98657.31;1785087;80;20905;-69
2022/07/11 02:18:45;;;;;;;8.00;4.97;;;;;;;14.09;100.00;98663.03;1785157;80;20935;-69
2022/07/11 02:21:13;;;;;;;6.35;3.92;;;;;;;14.07;100.00;98661.17;1785414;80;20885;-71
2022/07/11 02:23:40;;;;;;;8.83;4.33;;;;;;;14.04;100.00;98659.63;1785481;80;21308;-71
2022/07/11 02:26:07;;;;;;;5.03;4.53;;;;;;;13.99;100.00;98657.83;1773150;80;20848;-70
2022/07/11 02:28:36;;;;;;;8.58;3.35;;;;;;;13.96;100.00;98661.09;1771300;81;20986;-70
2022/07/11 02:31:04;;;;;;;6.10;4.70;;;;;;;13.91;100.00;98659.31;1782060;80;20872;-70
2022/07/11 02:33:31;;;;;;;4.03;3.67;;;;;;;13.88;100.00;98662.59;1763268;81;21010;-71
2022/07/11 02:35:58;;;;;;;11.53;9.28;;;;;;;13.84;100.00;98654.86;1763071;81;21232;-71
2022/07/11 02:38:26;;;;;;;9.78;7.72;;;;;;;13.80;100.00;98653.84;1763180;81;21480;-71
2022/07/11 02:40:53;;;;;;;8.23;6.03;;;;;;;13.73;100.00;98648.82;1763240;81;20975;-68
2022/07/11 02:43:20;;;;;;;12.15;8.55;;;;;;;13.70;100.00;98659.41;1763145;81;21516;-69
2022/07/11 02:45:47;;;;;;;9.20;6.77;;;;;;;13.66;100.00;98654.35;1763353;81;20891;-70
2022/07/11 02:48:14;;;;;;;18.35;8.18;;;;;;;13.63;100.00;98660.34;1763026;80;21258;-70
2022/07/11 02:50:42;;;;;;;16.87;11.63;;;;;;;13.60;100.00;98656.34;1763176;81;20900;-71
2022/07/11 02:53:09;;;;;;;13.78;9.03;;;;;;;13.58;100.00;98656.38;1763096;81;20872;-72
2022/07/11 02:55:36;;;;;;;10.98;7.12;;;;;;;13.56;100.00;98659.36;1763247;81;20947;-71
2022/07/11 02:58:03;;;;;;;14.07;8.48;;;;;;;13.56;100.00;98653.18;1763023;81;20943;-71
2022/07/11 03:00:30;;;;;;;13.68;8.43;;;;;;;13.56;100.00;98656.67;1763106;81;21098;-69
2022/07/11 03:02:57;;;;;;;8.25;5.20;;;;;;;13.55;100.00;98653.73;1763157;81;21402;-71
2022/07/11 03:05:25;;;;;;;8.23;5.75;;;;;;;13.57;100.00;98665.55;1763179;81;21501;-73
2022/07/11 03:07:51;;;;;;;12.25;8.03;;;;;;;13.59;100.00;98668.76;1763169;81;20939;-72
2022/07/11 03:10:18;;;;;;;13.03;6.45;;;;;;;13.59;100.00;98664.72;1763497;81;20860;-72
2022/07/11 03:12:45;;;;;;;10.65;7.47;;;;;;;13.59;100.00;98662.81;1763151;81;22316;-72
2022/07/11 03:15:12;;;;;;;150.35;83.40;;;;;;;13.59;100.00;98656.62;1763036;81;21041;-72
2022/07/11 03:17:39;;;;;;;85.70;55.67;;;;;;;13.57;100.00;98658.29;1763355;81;20935;-71
2022/07/11 03:20:08;;;;;;;39.55;26.80;;;;;;;13.54;100.00;98665.59;1763043;81;20975;-72
2022/07/11 03:22:35;;;;;;;11.83;10.03;;;;;;;13.54;100.00;98660.20;1763393;81;21557;-71
2022/07/11 03:25:07;;;;;;;27.70;23.18;;;;;;;13.55;100.00;98661.82;1763138;81;21246;-71
2022/07/11 03:27:34;;;;;;;11.57;7.55;;;;;;;13.56;100.00;98666.66;1763039;81;20941;-71
2022/07/11 03:30:03;;;;;;;21.95;13.62;;;;;;;13.56;100.00;98665.31;1763185;81;20971;-71
2022/07/11 03:32:29;;;;;;;10.82;8.68;;;;;;;13.59;100.00;98672.25;1762929;81;20944;-71
2022/07/11 03:37:42;;;;;;;7.28;6.58;;;;;;;13.68;100.00;98672.39;1763324;81;21506;-71
2022/07/11 03:40:11;;;;;;;;;;;;;;;13.72;100.00;98670.71;1765540;81;20884;-72
2022/07/11 03:42:38;;;;;;;6.37;5.35;;;;;;;13.74;100.00;98665.80;1763154;81;20446;-70
2022/07/11 03:45:06;;;;;;;7.05;4.40;;;;;;;13.76;100.00;98664.95;1762926;81;21458;-70
2022/07/11 03:47:36;;;;;;;7.05;5.55;;;;;;;13.83;100.00;98664.58;1763064;80;21043;-71
2022/07/11 03:50:04;;;;;;;;;;;;;;;13.93;100.00;98670.58;1793197;80;21311;-71
2022/07/11 03:52:32;;;;;;;6.87;4.55;;;;;;;14.08;100.00;98668.16;1759423;81;20161;-70
2022/07/11 03:54:58;;;;;;;11.88;6.72;;;;;;;14.21;100.00;98665.77;1763987;81;20920;-70
2022/07/11 03:57:26;;;;;;;4.67;4.25;;;;;;;14.33;100.00;98659.33;1790587;80;20888;-71
2022/07/11 03:59:53;;;;;;;7.85;4.45;;;;;;;14.46;100.00;98667.19;1764033;81;20996;-71
2022/07/11 04:02:20;;;;;;;5.33;3.17;;;;;;;14.63;100.00;98663.36;1790620;80;21392;-71
2022/07/11 04:04:47;;;;;;;5.35;3.15;;;;;;;14.74;100.00;98666.08;1737855;81;20944;-72
2022/07/11 04:07:15;;;;;;;176.13;90.47;;;;;;;15.04;100.00;98665.16;1790636;80;20868;-68
2022/07/11 04:09:41;;;;;;;25.70;17.10;;;;;;;15.30;100.00;98665.38;1764036;81;21568;-71
2022/07/11 04:12:09;;;;;;;22.75;16.62;;;;;;;15.43;100.00;98661.02;1790675;80;20880;-71
2022/07/11 04:14:36;;;;;;;6.08;5.03;;;;;;;15.63;100.00;98666.51;1763938;81;21147;-69
2022/07/11 04:17:05;;;;;;;18.85;14.80;;;;;;;15.85;100.00;98664.36;1790543;80;20915;-69
2022/07/11 04:19:31;;;;;;;3.72;2.75;;;;;;;16.12;100.00;98662.55;1733955;81;21623;-71
2022/07/11 04:21:59;;;;;;;4.10;3.08;;;;;;;16.29;100.00;98663.98;1763450;81;20924;-69
2022/07/11 04:24:25;;;;;;;5.12;4.40;;;;;;;16.40;100.00;98672.08;1790669;80;21477;-70
2022/07/11 04:26:52;;;;;;;11.28;6.25;;;;;;;16.62;100.00;98667.13;1763599;81;21216;-71
2022/07/11 04:29:19;;;;;;;6.42;5.70;;;;;;;16.85;100.00;98673.24;1790318;80;20903;-71
2022/07/11 04:31:46;;;;;;;12.98;8.23;;;;;;;17.31;100.00;98671.05;1763555;81;20984;-70
2022/07/11 04:34:13;;;;;;;5.17;3.52;;;;;;;17.45;100.00;98673.05;1790214;80;20923;-71
2022/07/11 04:36:40;;;;;;;;;;;;;;;17.50;100.00;98678.87;1766053;81;21026;-71
2022/07/11 04:39:07;;;;;;;4.20;3.17;;;;;;;17.54;100.00;98674.37;1774563;80;21203;-69
2022/07/11 04:41:35;;;;;;;5.80;3.70;;;;;;;17.79;100.00;98668.69;1774333;80;20990;-70
2022/07/11 04:44:02;;;;;;;4.45;3.17;;;;;;;17.82;100.00;98674.06;1774259;80;20997;-71
2022/07/11 04:46:29;;;;;;;9.03;2.90;;;;;;;17.95;100.00;98666.27;1774611;80;21538;-70
2022/07/11 04:48:56;;;;;;;8.08;4.60;;;;;;;18.23;100.00;98669.92;1774569;80;21708;-70
2022/07/11 04:51:24;;;;;;;6.90;4.55;;;;;;;18.21;100.00;98663.47;1774467;81;21174;-70
2022/07/11 04:53:52;;;;;;;4.25;2.83;;;;;;;18.30;100.00;98665.59;1774239;81;20977;-67
2022/07/11 04:56:19;;;;;;;7.85;5.17;;;;;;;18.34;100.00;98672.52;1774674;81;20974;-69
2022/07/11 04:58:46;;;;;;;6.47;3.50;;;;;;;18.12;100.00;98671.64;1774629;80;20938;-68
2022/07/11 05:01:13;;;;;;;10.68;4.40;;;;;;;18.09;100.00;98676.37;1774384;81;20939;-70
2022/07/11 05:03:40;;;;;;;5.65;3.40;;;;;;;17.93;100.00;98668.50;1774260;81;21282;-72
2022/07/11 05:06:07;;;;;;;5.83;3.05;;;;;;;17.87;100.00;98668.45;1790360;80;20907;-71
2022/07/11 05:08:36;;;;;;;7.65;2.87;;;;;;;17.81;100.00;98672.45;1763448;81;20983;-69
2022/07/11 05:11:04;;;;;;;7.12;4.58;;;;;;;18.08;100.00;98681.58;1790112;80;20884;-71
2022/07/11 05:13:31;;;;;;;14.07;6.55;;;;;;;18.04;100.00;98686.05;1763521;81;20876;-71
2022/07/11 05:15:58;;;;;;;5.87;5.22;;;;;;;17.99;100.00;98687.02;1763537;81;21232;-71
2022/07/11 05:18:26;;;;;;;;;;;;;;;18.20;100.00;98691.73;1766459;80;20875;-70
2022/07/11 05:20:53;;;;;;;6.72;4.37;;;;;;;17.91;100.00;98676.20;1790342;80;20168;-71
2022/07/11 05:23:21;;;;;;;14.23;5.87;;;;;;;17.91;100.00;98685.70;1763248;81;20955;-71
2022/07/11 05:25:47;;;;;;;7.35;4.20;;;;;;;18.07;100.00;98681.89;1790680;80;20911;-69
2022/07/11 05:28:14;;;;;;;12.50;3.60;;;;;;;18.15;100.00;98675.63;1763739;81;21508;-69
2022/07/11 05:30:41;;;;;;;7.15;3.62;;;;;;;18.58;100.00;98683.59;1790243;80;21526;-68
2022/07/11 05:33:08;;;;;;;5.78;3.08;;;;;;;19.42;100.00;98685.03;1763575;81;20892;-70
2022/07/11 05:35:34;;;;;;;6.15;2.65;;;;;;;20.25;100.00;98696.88;1790229;80;20955;-69
2022/07/11 05:38:01;;;;;;;7.40;4.97;;;;;;;20.63;91.35;98692.27;1763555;81;20974;-68
2022/07/11 05:40:28;;;;;;;13.83;5.62;;;;;;;20.86;94.63;98685.21;1790720;80;21808;-67
2022/07/11 05:42:55;;;;;;;7.35;2.50;;;;;;;21.33;85.68;98687.95;1763721;81;20923;-70
2022/07/11 05:45:22;;;;;;;6.08;2.77;;;;;;;21.00;84.45;98697.13;1790388;80;21489;-71
2022/07/11 05:47:49;;;;;;;9.70;4.55;;;;;;;21.07;87.73;98693.25;1763457;81;20927;-69
2022/07/11 05:50:15;;;;;;;8.58;5.30;;;;;;;21.46;83.10;98697.73;1766826;81;21485;-70
2022/07/11 05:52:42;;;;;;;5.15;2.95;;;;;;;21.27;82.96;98692.07;1766618;81;21237;-71
2022/07/11 05:55:09;;;;;;;4.25;2.17;;;;;;;21.20;82.89;98694.80;1766455;81;20907;-67
2022/07/11 05:57:36;;;;;;;6.12;3.05;;;;;;;21.07;84.99;98687.80;1766665;81;20908;-68
2022/07/11 06:00:04;;;;;;;8.23;3.83;;;;;;;20.70;91.36;98685.67;1766698;81;20935;-71
2022/07/11 06:02:33;;;;;;;2.70;2.12;;;;;;;20.96;91.84;98682.58;1766578;81;21053;-70
2022/07/11 06:05:00;;;;;;;4.17;3.10;;;;;;;21.36;82.24;98690.79;1766637;81;21443;-70
2022/07/11 06:10:13;;;;;;;5.00;2.87;;;;;;;21.28;80.52;98681.37;1766571;81;21469;-69
2022/07/11 06:12:41;;;;;;;5.67;4.17;;;;;;;21.59;79.77;98688.34;1766685;81;20968;-70
2022/07/11 06:15:09;;;;;;;5.50;4.08;;;;;;;21.97;78.26;98684.84;1766524;81;20895;-69
2022/07/11 06:17:36;;;;;;;6.28;4.92;;;;;;;21.84;76.01;98687.64;1766484;81;21289;-68
2022/07/11 06:20:04;;;;;;;4.95;2.90;;;;;;;21.78;78.45;98687.69;1766615;81;20975;-70
2022/07/11 06:22:32;;;;;;;5.87;2.22;;;;;;;22.04;75.26;98687.17;1766618;81;21011;-71
2022/07/11 06:24:59;;;;;;;4.45;2.40;;;;;;;22.19;74.84;98685.59;1766704;81;20923;-74
2022/07/11 06:27:26;;;;;;;6.43;2.50;;;;;;;22.45;72.18;98689.21;1766582;81;20967;-72
2022/07/11 06:29:52;;;;;;;7.05;2.58;;;;;;;22.38;71.02;98690.40;1766533;81;21237;-70
2022/07/11 06:32:19;;;;;;;3.77;3.02;;;;;;;22.37;73.42;98687.46;1766365;81;21784;-68
2022/07/11 06:34:45;;;;;;;7.22;2.80;;;;;;;22.72;67.54;98691.39;1766514;81;20987;-72
2022/07/11 06:37:12;;;;;;;4.80;3.03;;;;;;;22.98;66.57;98686.72;1766874;81;20939;-71
2022/07/11 06:39:39;;;;;;;2.85;2.17;;;;;;;23.36;65.07;98694.77;1766644;81;21564;-72
2022/07/11 06:42:06;;;;;;;5.12;2.45;;;;;;;23.33;61.39;98686.12;1766686;81;21220;-68
2022/07/11 06:44:33;;;;;;;7.75;3.95;;;;;;;23.35;61.03;98693.16;1766500;81;20936;-68
2022/07/11 06:47:00;;;;;;;6.70;2.63;;;;;;;22.85;62.88;98684.07;1766791;81;21433;-69
2022/07/11 06:49:26;;;;;;;8.43;2.70;;;;;;;22.70;62.76;98689.00;1764584;80;21430;-70
2022/07/11 06:51:53;;;;;;;6.47;2.80;;;;;;;22.99;63.69;98682.84;1762913;81;20935;-70
2022/07/11 06:54:20;;;;;;;4.08;2.65;;;;;;;23.08;64.49;98680.70;1762720;81;21241;-69
2022/07/11 06:56:47;;;;;;;4.20;2.10;;;;;;;22.93;61.41;98684.23;1762964;81;20892;-70
2022/07/11 06:59:13;;;;;;;5.17;1.80;;;;;;;22.90;65.10;98688.47;1763103;81;20998;-70
2022/07/11 07:01:40;;;;;;;4.87;3.23;;;;;;;22.87;59.24;98691.93;1763042;81;21433;-71
2022/07/11 07:04:07;;;;;;;6.33;2.72;;;;;;;23.10;61.73;98686.59;1763062;81;21097;-69
2022/07/11 07:06:34;;;;;;;8.08;4.78;;;;;;;23.11;60.58;98696.41;1762941;81;21130;-68
2022/07/11 07:09:03;;;;;;;11.80;3.02;;;;;;;23.25;57.71;98691.23;1762815;81;20974;-70
2022/07/11 07:11:29;;;;;;;4.47;2.27;;;;;;;23.43;57.82;98684.75;1762933;81;21402;-71
2022/07/11 07:13:58;;;;;;;3.95;1.98;;;;;;;23.54;55.48;98692.61;1762474;81;20948;-72
2022/07/11 07:16:24;;;;;;;10.33;2.47;;;;;;;23.31;54.73;98695.27;1763052;81;20928;-69
2022/07/11 07:18:52;;;;;;;5.72;1.87;;;;;;;23.29;55.64;98694.82;1762889;81;21259;-69
2022/07/11 07:21:20;;;;;;;7.85;1.72;;;;;;;23.53;54.63;98692.96;1762950;81;20860;-69
2022/07/11 07:23:47;;;;;;;4.15;2.02;;;;;;;23.80;52.32;98697.23;1762773;81;20895;-71
2022/07/11 07:26:14;;;;;;;4.50;1.65;;;;;;;23.99;53.16;98699.94;1762789;81;21010;-68
2022/07/11 07:28:41;;;;;;;4.50;2.10;;;;;;;23.86;54.25;98695.77;1762912;81;21055;-64
2022/07/11 07:31:10;;;;;;;2.40;1.42;;;;;;;24.18;49.75;98697.14;1762975;81;21262;-67
2022/07/11 07:33:36;;;;;;;5.20;3.15;;;;;;;24.44;49.79;98696.97;1762990;81;20892;-69
2022/07/11 07:36:04;;;;;;;5.65;3.37;;;;;;;24.63;49.81;98698.09;1763297;81;20982;-68
2022/07/11 07:38:31;;;;;;;6.72;1.80;;;;;;;24.60;49.21;98700.98;1763115;81;21029;-68
2022/07/11 07:40:58;;;;;;;6.28;1.80;;;;;;;24.62;47.17;98695.12;1763333;81;21438;-67
2022/07/11 07:43:25;;;;;;;11.48;2.80;;;;;;;23.88;47.03;98703.05;1763064;81;21224;-69
2022/07/11 07:45:52;;;;;;;4.55;2.10;;;;;;;23.42;49.90;98699.61;1763198;81;20939;-67
2022/07/11 07:48:19;;;;;;;3.40;2.00;;;;;;;23.21;49.80;98691.73;1763251;81;20935;-68
2022/07/11 07:50:46;;;;;;;5.75;3.67;;;;;;;23.16;50.01;98696.13;1763889;80;20952;-66
2022/07/11 07:53:13;;;;;;;9.60;4.00;;;;;;;23.40;49.86;98696.43;1790802;80;20924;-70
2022/07/11 07:55:40;;;;;;;5.87;2.37;;;;;;;23.68;49.06;98695.41;1764026;81;21194;-68
2022/07/11 07:58:07;;;;;;;6.08;2.15;;;;;;;23.73;48.74;98703.36;1790354;80;20871;-68
2022/07/11 08:03:19;;;;;;;4.65;1.75;;;;;;;24.16;47.68;98698.08;1790620;80;21424;-69
2022/07/11 08:05:46;;;;;;;5.55;1.60;;;;;;;24.25;47.48;98703.31;1764132;81;21450;-66
2022/07/11 08:08:13;;;;;;;7.40;2.12;;;;;;;24.07;45.87;98700.27;1790515;80;21197;-67
2022/07/11 08:10:40;;;;;;;3.60;1.70;;;;;;;24.13;47.00;98693.89;1763809;81;20872;-68
2022/07/11 08:13:07;;;;;;;3.75;1.85;;;;;;;24.16;47.31;98701.41;1790608;80;20915;-70
2022/07/11 08:15:35;;;;;;;3.20;1.67;;;;;;;24.52;47.42;98693.79;1763975;81;20975;-69
2022/07/11 08:18:02;;;;;;;4.15;1.90;;;;;;;24.08;45.49;98695.57;1790568;80;21516;-70
2022/07/11 08:20:29;;;;;;;4.95;2.02;;;;;;;23.87;46.80;98698.15;1763965;81;21190;-68
2022/07/11 08:23:02;;;;;;;9.60;2.00;;;;;;;23.68;47.24;98685.23;1790798;80;20863;-71
2022/07/11 08:25:30;;;;;;;6.75;1.77;;;;;;;23.70;49.07;98684.88;1763951;81;21371;-72
2022/07/11 08:27:57;;;;;;;3.58;1.57;;;;;;;23.86;48.97;98690.28;1790350;80;20879;-69
2022/07/11 08:30:25;;;;;;;3.72;2.08;;;;;;;23.48;48.40;98680.34;1764058;81;20980;-72
2022/07/11 08:32:52;;;;;;;;;;;;;;;23.73;48.76;98679.48;1793182;80;21250;-71
2022/07/11 08:35:20;;;;;;;4.75;1.95;;;;;;;23.70;47.42;98687.03;1759112;81;20460;-72
2022/07/11 08:37:47;;;;;;;12.23;2.33;;;;;;;23.74;48.91;98691.26;1759532;81;20907;-73
2022/07/11 08:40:14;;;;;;;7.03;2.60;;;;;;;23.39;48.60;98676.24;1764025;81;20982;-71
2022/07/11 08:42:45;;;;;;;3.27;2.27;;;;;;;23.03;51.31;98690.56;1738256;81;26330;-72
2022/07/11 08:45:14;;;;;;;4.00;2.17;;;;;;;22.81;50.38;98685.95;1790816;80;21856;-71
2022/07/11 08:47:43;;;;;;;7.50;3.72;;;;;;;22.47;52.57;98689.66;1763602;81;20979;-69
2022/07/11 08:50:12;;;;;;;8.80;3.30;;;;;;;21.99;53.39;98694.27;1785783;79;20829;-70
2022/07/11 08:52:38;;;;;;;7.50;3.10;;;;;;;21.40;57.28;98691.70;1762922;81;20952;-69
2022/07/11 08:55:07;;;;;;;8.00;2.87;;;;;;;21.11;63.03;98690.63;1763187;81;20990;-70
2022/07/11 08:57:36;;;;;;;11.05;5.87;;;;;;;20.45;78.79;98700.64;1762985;81;21872;-70
2022/07/11 09:00:06;;;;;;;13.53;3.77;;;;;;;20.06;93.02;98697.98;1763015;81;20951;-72
2022/07/11 09:02:33;;;;;;;24.80;8.63;;;;;;;19.27;100.00;98697.89;1763118;81;21572;-74
2022/07/11 09:05:07;;;;;;;41.80;23.90;;;;;;;18.60;100.00;98688.70;1763035;81;21433;-75
2022/07/11 09:07:35;;;;;;;8.20;4.92;;;;;;;18.05;100.00;98682.77;1763286;81;20991;-72
2022/07/11 09:10:02;;;;;;;21.23;18.37;;;;;;;17.63;100.00;98680.59;1733243;81;21207;-71
2022/07/11 09:12:30;;;;;;;60.20;53.98;;;;;;;17.50;100.00;98675.59;1763209;81;20912;-73
2022/07/11 09:14:59;;;;;;;42.50;37.53;;;;;;;17.42;100.00;98675.05;1763373;81;20892;-74
2022/07/11 09:17:33;;;;;;;21.05;17.95;;;;;;;17.42;100.00;98669.63;1763173;81;20947;-74
2022/07/11 09:19:57;;;;;;;16.02;11.50;;;;;;;17.43;100.00;98677.20;1762096;81;20887;-73
2022/07/11 09:25:25;;;;;;;11.18;8.73;;;;;;;17.45;100.00;98673.05;1766218;81;20884;-74
2022/07/11 09:28:01;;;;;;;20.57;9.70;;;;;;;17.49;100.00;98666.41;1765002;81;21520;-74
2022/07/11 09:30:31;;;;;;;6.47;5.42;;;;;;;17.53;100.00;98668.16;1763408;81;20868;-73
2022/07/11 09:33:07;;;;;;;12.37;4.97;;;;;;;17.60;100.00;98662.25;1763714;81;20885;-74
2022/07/11 09:35:40;;;;;;;7.33;4.58;;;;;;;17.68;100.00;98656.56;1762681;81;21261;-74
2022/07/11 09:38:21;;;;;;;4.33;2.83;;;;;;;17.74;100.00;98662.08;1763417;81;20887;-73
2022/07/11 09:40:48;;;;;;;6.15;4.03;;;;;;;17.82;100.00;98668.63;1763065;81;20920;-75
2022/07/11 09:43:25;;;;;;;8.85;4.33;;;;;;;17.92;100.00;98664.21;1763235;81;20960;-75
2022/07/11 09:45:52;;;;;;;7.90;4.22;;;;;;;17.97;100.00;98667.53;1763005;81;21765;-75
2022/07/11 09:48:19;;;;;;;4.47;3.20;;;;;;;18.06;100.00;98673.52;1763314;81;21869;-74
2022/07/11 09:51:00;;;;;;;8.43;6.08;;;;;;;18.17;100.00;98660.59;1763041;80;20983;-74
2022/07/11 09:53:25;;;;;;;11.70;4.42;;;;;;;18.25;100.00;98665.78;1762794;81;21545;-74
2022/07/11 09:55:53;;;;;;;9.85;5.87;;;;;;;18.32;100.00;98666.05;1763079;81;21038;-75
2022/07/11 09:58:24;;;;;;;12.23;7.28;;;;;;;18.36;100.00;98667.00;1763337;81;20927;-73
2022/07/11 10:00:51;;;;;;;15.70;8.58;;;;;;;18.34;100.00;98665.16;1762949;81;21124;-72
2022/07/11 10:03:18;;;;;;;28.47;9.95;;;;;;;18.34;100.00;98671.95;1763292;81;20860;-71
2022/07/11 10:05:44;;;;;;;25.40;18.82;;;;;;;18.36;100.00;98673.00;1708830;81;20927;-72
2022/07/11 10:08:12;;;;;;;24.80;15.05;;;;;;;18.33;100.00;98673.66;1763332;81;21010;-72
2022/07/11 10:10:39;;;;;;;36.53;21.50;;;;;;;18.30;100.00;98667.50;1763086;81;20887;-74
2022/07/11 10:13:06;;;;;;;57.43;20.27;;;;;;;18.28;100.00;98672.48;1763334;81;21136;-72
2022/07/11 10:15:35;;;;;;;42.58;16.77;;;;;;;18.10;100.00;98679.31;1763365;81;20939;-71
2022/07/11 10:18:15;;;;;;;19.30;9.53;;;;;;;17.97;100.00;98688.47;1763035;81;21561;-70
2022/07/11 10:20:52;;;;;;;8.28;4.42;;;;;;;17.74;100.00;98681.86;1752441;81;21484;-73
2022/07/11 10:23:42;;;;;;;7.30;3.15;;;;;;;17.51;100.00;98689.37;1763345;81;21007;-74
2022/07/11 10:26:46;;;;;;;6.22;3.08;;;;;;;17.19;100.00;98675.75;1763243;81;21602;-75
2022/07/11 10:29:17;;;;;;;6.10;2.87;;;;;;;16.79;100.00;98675.87;1762190;81;20943;-73
2022/07/11 10:31:47;;;;;;;8.73;4.53;;;;;;;16.41;100.00;98679.64;1733133;81;21018;-72
2022/07/11 10:34:18;;;;;;;8.28;4.85;;;;;;;16.03;100.00;98674.16;1754430;81;21592;-71
2022/07/11 10:36:46;;;;;;;15.60;5.22;;;;;;;15.83;100.00;98673.34;1763113;81;21034;-70
2022/07/11 10:39:24;;;;;;;6.90;3.85;;;;;;;15.81;100.00;98669.58;1763219;81;21246;-66
2022/07/11 10:41:51;;;;;;;8.40;6.10;;;;;;;15.88;100.00;98669.14;1763172;81;20912;-70
2022/07/11 10:44:18;;;;;;;6.83;5.00;;;;;;;15.97;100.00;98672.70;1763184;81;20928;-71
2022/07/11 10:46:45;;;;;;;6.78;4.75;;;;;;;16.14;100.00;98675.23;1763195;81;20931;-72
2022/07/11 10:49:20;;;;;;;8.78;7.10;;;;;;;16.21;100.00;98681.79;1763260;81;21588;-72
2022/07/11 10:51:55;;;;;;;9.65;5.25;;;;;;;16.41;100.00;98685.05;1761363;80;21825;-76
2022/07/11 10:55:00;;;;;;;5.50;4.25;;;;;;;16.59;100.00;98689.99;1788620;80;20962;-82
2022/07/11 10:57:34;;;;;;;5.23;4.70;;;;;;;16.74;100.00;98685.48;1756317;81;20887;-73
2022/07/11 11:00:14;;;;;;;8.50;6.58;;;;;;;16.97;100.00;98688.09;1763854;81;21212;-77
2022/07/11 11:03:07;;;;;;;4.33;3.92;;;;;;;17.11;100.00;98694.18;1763086;81;20888;-69
2022/07/11 11:05:52;;;;;;;7.62;3.52;;;;;;;17.23;100.00;98692.20;1789397;80;21234;-73
2022/07/11 11:08:42;;;;;;;4.58;3.92;;;;;;;17.37;100.00;98690.13;1763869;81;20995;-71
2022/07/11 11:11:35;;;;;;;3.58;3.05;;;;;;;17.51;100.00;98695.38;1790414;80;20868;-72
2022/07/11 11:14:19;;;;;;;17.95;13.00;;;;;;;17.68;100.00;98702.13;1737532;81;20936;-73
2022/07/11 11:16:48;;;;;;;28.47;15.60;;;;;;;17.83;100.00;98698.15;1790748;80;21528;-73
2022/07/11 11:19:50;;;;;;;31.42;15.85;;;;;;;17.96;100.00;98703.97;1763911;81;21376;-74
2022/07/11 11:22:23;;;;;;;14.73;9.15;;;;;;;18.06;100.00;98701.47;1790449;80;20832;-75
2022/07/11 11:24:53;;;;;;;25.52;14.10;;;;;;;18.13;100.00;98705.84;1763787;81;20971;-73
2022/07/11 11:27:25;;;;;;;8.68;5.00;;;;;;;18.19;100.00;98705.09;1763889;80;20923;-73
2022/07/11 11:29:55;;;;;;;12.93;7.78;;;;;;;18.24;100.00;98706.27;1764180;81;21034;-73
2022/07/11 11:32:25;;;;;;;6.37;4.20;;;;;;;18.30;100.00;98710.95;1790400;80;21867;-73
2022/07/11 11:34:52;;;;;;;9.45;5.90;;;;;;;18.27;100.00;98711.61;1737664;81;21058;-70
2022/07/11 11:37:20;;;;;;;9.20;6.58;;;;;;;18.25;100.00;98711.14;1732178;81;21406;-70
2022/07/11 11:39:48;;;;;;;11.03;5.28;;;;;;;18.25;100.00;98709.24;1789918;80;20974;-72
2022/07/11 11:42:16;;;;;;;10.35;6.58;;;;;;;18.23;100.00;98712.02;1763746;81;20990;-73